Time;durP1;ratioP1;P1;durP2;ratioP2;P2;SDS_P1;SDS_P2;PMS_P1;PMS_P2;Temp;Humidity;BMP_temperature;BMP_pressure;BME280_temperature;BME280_humidity;BME280_pressure;Samples;Min_cycle;Max_cycle;Signal;HPM_P1;HPM_P2
2023/01/08 00:01:49;;;;;;;7.60;3.85;;;9.00;99.90;;;;;;5026036;28;20069;-49
2023/01/08 00:04:16;;;;;;;8.70;3.83;;;9.60;99.90;;;;;;5026808;28;20515;-49
2023/01/08 00:06:43;;;;;;;10.50;4.10;;;9.80;99.90;;;;;;5031411;28;20083;-50
2023/01/08 00:09:09;;;;;;;9.25;4.07;;;9.10;99.90;;;;;;5032390;28;20349;-52
2023/01/08 00:11:35;;;;;;;7.00;4.05;;;9.50;99.90;;;;;;5032666;28;20049;-49
2023/01/08 00:14:01;;;;;;;11.00;4.80;;;9.50;99.90;;;;;;5032404;28;20527;-48
2023/01/08 00:16:29;;;;;;;8.63;4.60;;;9.70;99.90;;;;;;5025013;28;20044;-49
2023/01/08 00:18:55;;;;;;;8.95;4.22;;;9.70;99.90;;;;;;5027386;28;20037;-49
2023/01/08 00:21:21;;;;;;;7.53;4.07;;;10.20;99.90;;;;;;5027590;28;20418;-50
2023/01/08 00:23:48;;;;;;;7.35;4.75;;;9.80;99.90;;;;;;5029508;28;20041;-49
2023/01/08 00:26:13;;;;;;;8.48;4.05;;;9.70;99.90;;;;;;5014523;28;20048;-50
2023/01/08 00:28:40;;;;;;;8.60;3.85;;;10.50;99.90;;;;;;5024892;28;20050;-50
2023/01/08 00:31:07;;;;;;;9.38;4.82;;;;;;;;;;5032493;28;20037;-47
2023/01/08 00:33:33;;;;;;;10.70;4.22;;;9.90;99.90;;;;;;5007333;28;20043;-52
2023/01/08 00:35:59;;;;;;;8.75;4.30;;;10.20;99.90;;;;;;5032330;28;20038;-49
2023/01/08 00:38:26;;;;;;;7.28;4.13;;;10.10;99.90;;;;;;5031808;28;20124;-51
2023/01/08 00:40:51;;;;;;;8.23;3.83;;;10.20;99.90;;;;;;5032111;28;20037;-47
2023/01/08 00:43:20;;;;;;;8.75;4.25;;;10.20;99.90;;;;;;4989616;28;20037;-50
2023/01/08 00:45:46;;;;;;;7.72;3.97;;;9.80;99.90;;;;;;5032137;28;20045;-50
2023/01/08 00:48:12;;;;;;;8.90;4.03;;;;;;;;;;5031496;28;20029;-50
2023/01/08 00:50:37;;;;;;;7.55;3.00;;;9.50;99.90;;;;;;5014392;28;20050;-50
2023/01/08 00:53:03;;;;;;;7.55;3.47;;;9.60;99.90;;;;;;5025715;28;20033;-49
2023/01/08 00:55:29;;;;;;;7.55;2.75;;;9.50;99.90;;;;;;5028884;28;20038;-48
2023/01/08 00:57:56;;;;;;;6.95;3.00;;;9.60;99.90;;;;;;5030792;28;20321;-49
2023/01/08 01:00:23;;;;;;;8.35;3.10;;;9.50;99.90;;;;;;5030513;28;20125;-52
2023/01/08 01:02:51;;;;;;;7.07;2.80;;;9.40;99.90;;;;;;5031831;28;20045;-52
2023/01/08 01:05:17;;;;;;;7.97;3.00;;;9.50;99.90;;;;;;5031695;28;20042;-50
2023/01/08 01:07:43;;;;;;;9.65;2.75;;;9.30;99.90;;;;;;5023016;28;20057;-48
2023/01/08 01:10:11;;;;;;;7.18;2.65;;;9.20;99.90;;;;;;4997947;28;20077;-51
2023/01/08 01:12:37;;;;;;;7.22;2.30;;;;;;;;;;5029571;28;20030;-50
2023/01/08 01:15:09;;;;;;;5.57;1.77;;;9.70;99.90;;;;;;5029638;28;20041;-48
2023/01/08 01:17:37;;;;;;;7.28;2.28;;;8.90;99.90;;;;;;5031212;28;20037;-50
2023/01/08 01:20:04;;;;;;;8.38;2.20;;;8.80;99.90;;;;;;5031844;28;20033;-51
2023/01/08 01:22:30;;;;;;;6.15;2.28;;;9.30;99.90;;;;;;5031087;28;20038;-51
2023/01/08 01:24:56;;;;;;;11.32;2.20;;;9.20;99.90;;;;;;5019863;28;20407;-49
2023/01/08 01:27:23;;;;;;;10.25;1.77;;;9.30;99.90;;;;;;5026565;28;20185;-52
2023/01/08 01:29:49;;;;;;;7.53;1.92;;;9.30;99.90;;;;;;5031407;28;20308;-49
2023/01/08 01:32:14;;;;;;;6.95;2.05;;;9.30;99.90;;;;;;5025438;28;20081;-50
2023/01/08 01:34:40;;;;;;;5.93;1.50;;;9.20;99.90;;;;;;5004209;28;20437;-50
2023/01/08 01:37:06;;;;;;;7.63;1.90;;;9.10;99.90;;;;;;5030062;28;20384;-49
2023/01/08 01:39:32;;;;;;;7.70;1.92;;;9.20;99.90;;;;;;5024027;28;20177;-49
2023/01/08 01:41:57;;;;;;;9.13;1.92;;;8.90;99.90;;;;;;5031057;28;20122;-52
2023/01/08 01:44:45;;;;;;;9.27;2.92;;;9.30;99.90;;;;;;5030035;28;20049;-50
2023/01/08 01:47:20;;;;;;;7.90;2.05;;;8.90;99.90;;;;;;5030774;28;20052;-50
2023/01/08 01:50:19;;;;;;;9.52;2.90;;;9.10;99.90;;;;;;5030160;28;20040;-47
2023/01/08 01:53:01;;;;;;;6.80;2.25;;;8.50;99.90;;;;;;4987307;28;20064;-51
2023/01/08 01:55:29;;;;;;;7.35;2.10;;;8.50;99.90;;;;;;5027233;28;20621;-52
2023/01/08 01:58:14;;;;;;;6.80;2.40;;;8.50;99.90;;;;;;5029678;28;20037;-49
2023/01/08 02:00:40;;;;;;;8.82;3.05;;;;;;;;;;5028161;28;20037;-51
2023/01/08 02:03:09;;;;;;;6.47;2.50;;;8.70;99.90;;;;;;5027537;28;20099;-50
2023/01/08 02:05:59;;;;;;;7.85;2.28;;;8.20;99.90;;;;;;5029821;28;20046;-49
2023/01/08 02:08:33;;;;;;;7.30;2.42;;;8.50;99.90;;;;;;5029368;28;20038;-48
2023/01/08 02:11:11;;;;;;;8.70;2.33;;;8.70;99.90;;;;;;5029674;28;20033;-49
2023/01/08 02:13:42;;;;;;;8.25;2.40;;;;;;;;;;5029573;28;20045;-50
2023/01/08 02:16:40;;;;;;;7.22;2.03;;;8.70;99.90;;;;;;5005804;28;20047;-51
2023/01/08 02:19:36;;;;;;;8.38;2.95;;;8.80;99.90;;;;;;5024988;28;20156;-48
2023/01/08 02:22:11;;;;;;;12.70;2.75;;;;;;;;;;5023733;28;20103;-49
2023/01/08 02:25:01;;;;;;;11.45;2.88;;;8.60;99.90;;;;;;5029455;28;20045;-51
2023/01/08 02:27:29;;;;;;;12.77;2.55;;;8.20;99.90;;;;;;5011521;28;20037;-49
2023/01/08 02:29:56;;;;;;;10.10;2.70;;;8.70;99.90;;;;;;5029518;28;20040;-49
2023/01/08 02:32:32;;;;;;;9.57;2.40;;;8.20;99.90;;;;;;5021921;28;20535;-51
2023/01/08 02:34:58;;;;;;;9.52;2.75;;;8.50;99.90;;;;;;5022101;28;20037;-49
2023/01/08 02:37:24;;;;;;;9.73;2.30;;;8.00;99.90;;;;;;5029097;28;20406;-51
2023/01/08 02:40:08;;;;;;;9.73;2.75;;;9.10;99.90;;;;;;5029190;28;20033;-48
2023/01/08 02:43:05;;;;;;;11.23;2.67;;;8.10;99.90;;;;;;5029257;28;20486;-49
2023/01/08 02:45:42;;;;;;;10.68;3.65;;;8.00;99.90;;;;;;5008494;28;20315;-47
2023/01/08 02:48:22;;;;;;;11.18;2.70;;;8.60;99.90;;;;;;5019746;28;20033;-51
2023/01/08 02:51:14;;;;;;;10.05;2.65;;;8.10;99.90;;;;;;5019413;28;20069;-49
2023/01/08 02:53:44;;;;;;;16.45;2.72;;;7.80;99.90;;;;;;5037637;28;20175;-52
2023/01/08 02:56:20;;;;;;;8.02;2.65;;;8.20;99.90;;;;;;5031946;28;20037;-50
2023/01/08 02:58:47;;;;;;;11.75;2.63;;;8.20;99.90;;;;;;4991695;28;1077071;-48
2023/01/08 03:01:15;;;;;;;10.55;2.65;;;8.60;99.90;;;;;;5030540;28;20498;-49
2023/01/08 03:03:45;;;;;;;14.63;3.15;;;8.40;99.90;;;;;;5032503;28;20045;-48
2023/01/08 03:06:16;;;;;;;14.68;2.58;;;8.00;99.90;;;;;;5034129;28;20120;-48
2023/01/08 03:08:44;;;;;;;9.77;2.55;;;;;;;;;;5039803;28;20094;-46
2023/01/08 03:11:13;;;;;;;10.93;2.92;;;8.30;99.90;;;;;;5041291;28;20030;-48
2023/01/08 03:13:55;;;;;;;14.93;3.08;;;8.40;99.90;;;;;;5039054;28;20037;-49
2023/01/08 03:16:31;;;;;;;10.00;3.50;;;7.70;99.90;;;;;;5040282;28;20095;-49
2023/01/08 03:19:26;;;;;;;14.70;3.38;;;8.10;99.90;;;;;;5023995;28;20084;-49
2023/01/08 03:21:52;;;;;;;10.82;2.45;;;8.30;99.90;;;;;;5015858;28;20044;-48
2023/01/08 03:24:22;;;;;;;16.05;3.42;;;;;;;;;;5015532;28;20056;-49
2023/01/08 03:26:50;;;;;;;10.70;2.50;;;7.60;99.90;;;;;;5034201;28;20099;-49
2023/01/08 03:29:19;;;;;;;9.43;2.03;;;7.90;99.90;;;;;;5039520;28;20518;-48
2023/01/08 03:31:47;;;;;;;7.72;2.00;;;8.50;99.90;;;;;;5019614;28;20041;-49
2023/01/08 03:34:14;;;;;;;9.90;2.40;;;;;;;;;;5028709;28;20087;-49
2023/01/08 03:36:48;;;;;;;10.52;3.03;;;8.10;99.90;;;;;;5027996;28;20466;-48
2023/01/08 03:39:25;;;;;;;9.30;2.13;;;8.40;99.90;;;;;;5043217;28;20107;-49
2023/01/08 03:41:55;;;;;;;12.00;3.38;;;8.10;99.90;;;;;;5035810;28;20044;-51
2023/01/08 03:44:21;;;;;;;12.90;2.88;;;8.30;99.90;;;;;;5043394;28;20049;-48
2023/01/08 03:46:51;;;;;;;9.20;2.42;;;8.00;99.90;;;;;;5034752;28;20058;-49
2023/01/08 03:49:20;;;;;;;15.77;3.58;;;8.00;99.90;;;;;;5040684;28;20120;-49
2023/01/08 03:51:46;;;;;;;13.13;2.20;;;8.20;99.90;;;;;;5034629;28;20045;-47
2023/01/08 03:54:15;;;;;;;12.88;2.70;;;8.00;99.90;;;;;;5033418;28;20048;-48
2023/01/08 03:56:41;;;;;;;7.95;2.30;;;7.90;99.90;;;;;;5033257;28;20045;-49
2023/01/08 03:59:07;;;;;;;17.33;2.85;;;7.80;99.90;;;;;;5016804;28;20041;-51
2023/01/08 04:01:32;;;;;;;11.98;2.60;;;8.30;99.90;;;;;;5039085;28;20486;-50
2023/01/08 04:03:58;;;;;;;11.35;2.53;;;8.10;99.90;;;;;;5023393;28;20364;-51
2023/01/08 04:06:27;;;;;;;11.27;2.50;;;;;;;;;;5021665;28;20052;-48
2023/01/08 04:08:52;;;;;;;10.00;2.72;;;7.50;99.90;;;;;;5039735;28;20164;-47
2023/01/08 04:11:19;;;;;;;8.13;2.60;;;7.80;99.90;;;;;;5031633;28;20125;-50
2023/01/08 04:13:44;;;;;;;8.43;2.30;;;8.50;99.90;;;;;;5036222;28;20033;-49
2023/01/08 04:16:10;;;;;;;8.32;2.55;;;8.10;99.90;;;;;;5033891;28;20607;-49
2023/01/08 04:18:35;;;;;;;12.05;3.03;;;8.10;99.90;;;;;;5038659;28;20045;-49
2023/01/08 04:21:01;;;;;;;13.45;3.10;;;7.20;99.90;;;;;;5036917;28;20041;-48
2023/01/08 04:23:27;;;;;;;15.20;3.45;;;;;;;;;;5039241;28;20059;-49
2023/01/08 04:25:53;;;;;;;11.93;3.67;;;7.80;99.90;;;;;;5022309;28;20052;-49
2023/01/08 04:28:19;;;;;;;10.05;3.20;;;7.20;99.90;;;;;;5036347;28;20029;-50
2023/01/08 04:30:45;;;;;;;10.10;3.53;;;7.10;99.90;;;;;;5039432;28;20055;-50
2023/01/08 04:33:10;;;;;;;9.63;3.38;;;8.10;99.90;;;;;;5033416;28;20408;-46
2023/01/08 04:35:36;;;;;;;9.60;3.22;;;8.30;99.90;;;;;;5024658;28;20046;-51
2023/01/08 04:38:03;;;;;;;9.45;3.03;;;7.50;99.90;;;;;;5039632;28;20037;-51
2023/01/08 04:40:30;;;;;;;15.50;3.40;;;8.00;99.90;;;;;;5038394;28;20155;-50
2023/01/08 04:42:56;;;;;;;8.93;3.10;;;7.70;99.90;;;;;;5039423;28;20112;-51
2023/01/08 04:45:22;;;;;;;8.45;2.58;;;7.80;99.90;;;;;;5036455;28;20115;-49
2023/01/08 04:47:54;;;;;;;12.80;3.90;;;8.10;99.90;;;;;;5027658;28;20091;-50
2023/01/08 04:50:21;;;;;;;8.68;2.95;;;7.70;99.90;;;;;;5034532;28;20040;-49
2023/01/08 04:52:47;;;;;;;9.55;3.00;;;7.50;99.90;;;;;;5038357;28;20063;-52
2023/01/08 04:55:13;;;;;;;11.63;3.40;;;7.70;99.90;;;;;;5022551;28;20045;-52
2023/01/08 04:57:38;;;;;;;15.15;4.03;;;7.80;99.90;;;;;;5037798;28;20518;-50
2023/01/08 05:00:06;;;;;;;9.73;3.17;;;8.10;99.90;;;;;;5018536;28;20124;-49
2023/01/08 05:02:31;;;;;;;8.48;2.80;;;7.90;99.90;;;;;;5036281;28;20510;-50
2023/01/08 05:04:57;;;;;;;9.73;3.63;;;8.10;99.90;;;;;;5033940;28;20072;-50
2023/01/08 05:07:23;;;;;;;11.60;3.35;;;8.00;99.90;;;;;;5036040;28;20064;-49
2023/01/08 05:09:48;;;;;;;7.20;2.78;;;8.00;99.90;;;;;;5040148;28;20116;-50
2023/01/08 05:12:14;;;;;;;7.25;2.85;;;8.20;99.90;;;;;;5035586;28;20400;-51
2023/01/08 05:14:39;;;;;;;7.65;2.95;;;8.30;99.90;;;;;;5038301;28;20049;-51
2023/01/08 05:17:05;;;;;;;8.50;2.80;;;8.00;99.90;;;;;;5039564;28;20044;-50
2023/01/08 05:19:31;;;;;;;5.75;2.63;;;7.70;99.90;;;;;;5019277;28;20044;-53
2023/01/08 05:21:57;;;;;;;9.25;2.80;;;8.30;99.90;;;;;;5032675;28;20037;-52
2023/01/08 05:24:23;;;;;;;9.63;3.47;;;7.70;99.90;;;;;;5036084;28;20046;-50
2023/01/08 05:26:49;;;;;;;9.68;3.13;;;8.10;99.90;;;;;;5041738;28;20151;-51
2023/01/08 05:29:15;;;;;;;11.35;2.70;;;7.90;99.90;;;;;;5040285;28;20400;-50
2023/01/08 05:31:40;;;;;;;9.68;3.42;;;8.20;99.90;;;;;;5037860;28;20042;-48
2023/01/08 05:34:06;;;;;;;9.32;2.95;;;8.10;99.90;;;;;;5034603;28;20033;-50
2023/01/08 05:36:31;;;;;;;9.80;2.88;;;7.60;99.90;;;;;;5036280;28;20033;-50
2023/01/08 05:39:00;;;;;;;7.97;2.50;;;7.80;99.90;;;;;;5036826;28;20033;-50
2023/01/08 05:41:27;;;;;;;10.55;2.67;;;7.60;99.90;;;;;;5035904;28;20038;-50
2023/01/08 05:43:53;;;;;;;6.50;2.38;;;8.10;99.90;;;;;;5038471;28;20039;-50
2023/01/08 05:46:19;;;;;;;7.05;2.20;;;7.70;99.90;;;;;;5035128;28;20470;-51
2023/01/08 05:48:45;;;;;;;6.32;2.47;;;7.90;99.90;;;;;;5037014;28;20112;-52
2023/01/08 05:51:10;;;;;;;6.28;1.77;;;8.40;99.90;;;;;;5015418;28;20037;-50
2023/01/08 05:53:36;;;;;;;6.90;2.10;;;7.80;99.90;;;;;;5037030;28;20092;-49
2023/01/08 05:56:04;;;;;;;6.38;1.90;;;8.20;99.90;;;;;;5040141;28;20041;-49
2023/01/08 05:58:30;;;;;;;9.15;2.03;;;7.60;99.90;;;;;;5034744;28;20052;-49
2023/01/08 06:01:09;;;;;;;6.80;2.10;;;7.60;99.90;;;;;;5034179;28;20037;-51
2023/01/08 06:03:36;;;;;;;10.45;2.33;;;7.60;99.90;;;;;;5036295;28;20486;-50
2023/01/08 06:06:03;;;;;;;8.60;2.08;;;8.40;99.90;;;;;;5033850;28;20049;-51
2023/01/08 06:08:30;;;;;;;6.78;1.85;;;7.90;99.90;;;;;;5031968;28;20483;-51
2023/01/08 06:11:05;;;;;;;8.50;2.30;;;7.50;99.90;;;;;;5031971;28;20032;-49
2023/01/08 06:13:31;;;;;;;8.02;2.70;;;7.90;99.90;;;;;;5034018;28;20089;-47
2023/01/08 06:15:59;;;;;;;9.27;2.42;;;8.30;99.90;;;;;;5031273;28;20073;-53
2023/01/08 06:18:25;;;;;;;8.98;2.03;;;8.00;99.90;;;;;;5038031;28;20053;-52
2023/01/08 06:20:50;;;;;;;6.57;2.17;;;7.20;99.90;;;;;;5035982;28;20033;-49
2023/01/08 06:23:16;;;;;;;9.77;2.15;;;7.30;99.90;;;;;;5035550;28;20036;-50
2023/01/08 06:25:42;;;;;;;10.38;2.72;;;7.60;99.90;;;;;;5021266;28;20715;-50
2023/01/08 06:28:07;;;;;;;6.30;2.15;;;7.30;99.90;;;;;;5032505;28;20104;-51
2023/01/08 06:30:33;;;;;;;9.02;2.67;;;7.20;99.90;;;;;;5039396;28;20048;-51
2023/01/08 06:32:59;;;;;;;6.78;2.15;;;7.60;99.90;;;;;;5013284;28;20133;-52
2023/01/08 06:35:26;;;;;;;10.63;2.30;;;7.20;99.90;;;;;;5020233;28;20059;-49
2023/01/08 06:37:54;;;;;;;8.18;2.47;;;7.80;99.90;;;;;;5024186;28;20045;-51
2023/01/08 06:40:20;;;;;;;7.22;1.90;;;;;;;;;;5034481;28;20095;-49
2023/01/08 06:42:46;;;;;;;6.63;1.85;;;7.20;99.90;;;;;;5037278;28;20490;-50
2023/01/08 06:45:12;;;;;;;7.90;2.00;;;7.60;99.90;;;;;;5015486;28;20100;-50
2023/01/08 06:47:37;;;;;;;7.22;2.35;;;7.40;99.90;;;;;;5034113;28;20038;-51
2023/01/08 06:50:05;;;;;;;7.50;2.10;;;6.80;99.90;;;;;;5030590;28;20030;-50
2023/01/08 06:52:30;;;;;;;10.38;2.20;;;7.20;99.90;;;;;;5020614;28;20033;-51
2023/01/08 06:54:56;;;;;;;10.38;2.47;;;7.20;99.90;;;;;;5016929;28;20133;-53
2023/01/08 06:57:22;;;;;;;8.88;2.00;;;;;;;;;;5015801;28;20087;-50
2023/01/08 06:59:48;;;;;;;12.38;2.05;;;7.20;99.90;;;;;;5032551;28;20045;-50
2023/01/08 07:02:15;;;;;;;9.20;2.28;;;7.50;99.90;;;;;;5035783;28;20548;-50
2023/01/08 07:04:41;;;;;;;8.00;2.10;;;7.60;99.90;;;;;;5039898;28;20112;-49
2023/01/08 07:07:07;;;;;;;6.80;2.17;;;;;;;;;;5028246;28;20387;-52
2023/01/08 07:09:34;;;;;;;9.60;2.60;;;7.20;99.90;;;;;;5027702;28;20516;-53
2023/01/08 07:11:59;;;;;;;7.07;2.72;;;7.20;99.90;;;;;;5034005;28;20042;-52
2023/01/08 07:14:25;;;;;;;14.80;3.05;;;7.60;99.90;;;;;;5036259;28;20369;-50
2023/01/08 07:16:50;;;;;;;10.57;2.33;;;7.20;99.90;;;;;;5032830;28;20041;-51
2023/01/08 07:19:16;;;;;;;10.38;2.40;;;7.10;99.90;;;;;;5035076;28;20048;-51
2023/01/08 07:21:42;;;;;;;12.20;3.22;;;7.70;99.90;;;;;;5039831;28;20055;-53
2023/01/08 07:24:08;;;;;;;7.90;2.10;;;7.50;99.90;;;;;;5034430;28;20099;-50
2023/01/08 07:26:34;;;;;;;6.80;2.55;;;7.40;99.90;;;;;;5037988;28;20100;-52
2023/01/08 07:29:00;;;;;;;6.55;2.35;;;7.90;99.90;;;;;;5033134;28;20045;-53
2023/01/08 07:31:25;;;;;;;11.57;2.25;;;7.10;99.90;;;;;;5033810;28;20033;-49
2023/01/08 07:33:51;;;;;;;7.70;2.20;;;7.00;99.90;;;;;;5039687;28;20028;-50
2023/01/08 07:36:21;;;;;;;8.40;2.28;;;7.50;99.90;;;;;;5038190;28;20041;-52
2023/01/08 07:38:48;;;;;;;10.27;2.75;;;7.60;99.90;;;;;;5032643;28;20049;-53
2023/01/08 07:41:15;;;;;;;8.70;2.58;;;7.00;99.90;;;;;;5018552;28;20045;-52
2023/01/08 07:43:40;;;;;;;9.98;2.47;;;7.50;99.90;;;;;;5034364;28;20095;-50
2023/01/08 07:46:06;;;;;;;11.27;3.00;;;7.50;99.90;;;;;;5028304;28;20037;-50
2023/01/08 07:48:47;;;;;;;11.07;2.58;;;6.60;99.90;;;;;;5010917;28;20037;-50
2023/01/08 07:51:13;;;;;;;8.57;2.70;;;6.90;99.90;;;;;;5032554;28;20072;-53
2023/01/08 07:53:38;;;;;;;13.32;2.72;;;6.80;99.90;;;;;;5033033;28;20444;-51
2023/01/08 07:56:07;;;;;;;7.80;2.60;;;7.40;99.90;;;;;;4999566;28;20046;-52
2023/01/08 07:58:33;;;;;;;10.50;3.63;;;;;;;;;;5027903;28;20038;-53
2023/01/08 08:00:59;;;;;;;11.90;3.45;;;7.40;99.90;;;;;;5038516;28;20174;-52
2023/01/08 08:03:25;;;;;;;8.93;3.70;;;7.30;99.90;;;;;;5033681;28;20041;-49
2023/01/08 08:05:51;;;;;;;7.60;3.45;;;7.20;99.90;;;;;;5019928;28;20470;-49
2023/01/08 08:08:18;;;;;;;11.10;4.15;;;7.00;99.90;;;;;;5022296;28;20403;-53
2023/01/08 08:10:44;;;;;;;8.68;3.67;;;7.30;99.90;;;;;;5031138;28;20036;-49
2023/01/08 08:13:10;;;;;;;11.40;3.85;;;6.90;99.90;;;;;;5034861;28;20024;-50
2023/01/08 08:15:36;;;;;;;8.55;3.50;;;7.00;99.90;;;;;;5042316;28;20040;-52
2023/01/08 08:18:03;;;;;;;11.13;3.75;;;6.90;99.90;;;;;;5029755;28;20071;-49
2023/01/08 08:20:28;;;;;;;10.27;3.67;;;7.00;99.90;;;;;;5032399;28;20049;-50
2023/01/08 08:23:06;;;;;;;8.55;4.20;;;7.00;99.90;;;;;;5032395;28;20236;-53
2023/01/08 08:25:32;;;;;;;8.10;3.55;;;7.10;99.90;;;;;;5032332;28;20553;-52
2023/01/08 08:27:59;;;;;;;13.07;5.25;;;6.90;99.90;;;;;;5029221;28;20069;-50
2023/01/08 08:30:28;;;;;;;12.63;3.50;;;7.00;99.90;;;;;;5003255;28;20254;-51
2023/01/08 08:32:56;;;;;;;10.38;3.65;;;6.60;99.90;;;;;;5024254;28;20072;-49
2023/01/08 08:35:22;;;;;;;11.23;4.35;;;7.40;99.90;;;;;;5030531;28;20041;-50
2023/01/08 08:37:48;;;;;;;12.05;4.03;;;7.30;99.90;;;;;;5031991;28;20195;-50
2023/01/08 08:40:13;;;;;;;8.23;3.00;;;6.90;99.90;;;;;;5003187;28;20099;-49
2023/01/08 08:42:39;;;;;;;9.98;3.33;;;7.00;99.90;;;;;;5007267;28;20112;-53
2023/01/08 08:45:07;;;;;;;11.25;3.10;;;6.90;99.90;;;;;;5009477;28;20132;-53
2023/01/08 08:47:32;;;;;;;12.07;3.35;;;6.70;99.90;;;;;;5031246;28;20037;-50
2023/01/08 08:49:58;;;;;;;9.70;3.08;;;7.30;99.90;;;;;;5027262;28;20151;-51
2023/01/08 08:52:23;;;;;;;12.10;3.70;;;7.40;99.90;;;;;;5027746;28;20045;-51
2023/01/08 08:54:50;;;;;;;10.27;3.35;;;7.50;99.90;;;;;;5031377;28;20422;-51
2023/01/08 08:57:16;;;;;;;13.35;3.50;;;7.20;99.90;;;;;;5031559;28;20534;-52
2023/01/08 08:59:42;;;;;;;12.55;3.03;;;7.00;99.90;;;;;;5030648;28;20073;-49
2023/01/08 09:02:09;;;;;;;13.38;3.20;;;7.30;99.90;;;;;;5024700;28;20029;-49
2023/01/08 09:04:35;;;;;;;14.75;3.28;;;7.20;99.90;;;;;;5038466;28;20371;-53
2023/01/08 09:07:02;;;;;;;13.63;3.00;;;;;;;;;;5017029;28;20033;-52
2023/01/08 09:09:28;;;;;;;11.18;2.75;;;7.30;99.90;;;;;;5040302;28;20044;-48
2023/01/08 09:11:54;;;;;;;11.90;4.75;;;7.10;99.90;;;;;;5024155;28;20344;-50
2023/01/08 09:14:20;;;;;;;10.95;2.80;;;;;;;;;;5002415;28;20450;-51
2023/01/08 09:16:46;;;;;;;9.65;2.88;;;7.60;99.90;;;;;;5034912;28;20045;-52
2023/01/08 09:19:12;;;;;;;8.73;2.72;;;7.10;99.90;;;;;;5034782;28;20056;-52
2023/01/08 09:21:37;;;;;;;10.63;2.75;;;7.70;99.90;;;;;;5023624;28;20032;-52
2023/01/08 09:24:03;;;;;;;11.25;3.45;;;7.90;99.90;;;;;;5021463;28;20385;-50
2023/01/08 09:26:29;;;;;;;8.20;2.63;;;7.40;99.90;;;;;;5018521;28;20073;-50
2023/01/08 09:28:57;;;;;;;11.90;2.85;;;7.50;99.90;;;;;;5034652;28;20071;-53
2023/01/08 09:31:23;;;;;;;9.05;2.40;;;7.00;99.90;;;;;;5036172;28;20038;-53
2023/01/08 09:33:49;;;;;;;8.35;2.22;;;7.50;99.90;;;;;;5030629;28;20049;-49
2023/01/08 09:36:15;;;;;;;9.60;2.58;;;7.60;99.90;;;;;;5028334;28;20041;-52
2023/01/08 09:38:42;;;;;;;7.07;2.50;;;7.90;99.90;;;;;;5030006;28;20191;-50
2023/01/08 09:41:24;;;;;;;7.88;2.70;;;7.20;99.90;;;;;;5011712;28;20041;-52
2023/01/08 09:43:52;;;;;;;10.57;2.47;;;7.80;99.90;;;;;;5012390;28;20049;-53
2023/01/08 09:46:20;;;;;;;14.27;3.25;;;8.20;99.90;;;;;;5028901;28;20060;-50
2023/01/08 09:48:47;;;;;;;17.52;3.55;;;7.80;99.90;;;;;;5029842;28;20046;-50
2023/01/08 09:51:16;;;;;;;8.05;2.42;;;7.80;99.90;;;;;;5030338;28;20030;-46
2023/01/08 09:53:43;;;;;;;8.77;2.65;;;7.70;99.90;;;;;;5030563;28;20130;-50
2023/01/08 09:56:14;;;;;;;14.95;3.03;;;7.30;99.90;;;;;;5029707;28;20411;-49
2023/01/08 09:58:44;;;;;;;11.40;2.78;;;7.80;99.90;;;;;;5029439;28;20038;-49
2023/01/08 10:01:13;;;;;;;10.55;2.67;;;8.40;99.90;;;;;;5030153;28;20139;-50
2023/01/08 10:03:46;;;;;;;11.85;2.70;;;8.70;99.90;;;;;;5030444;28;20484;-53
2023/01/08 10:06:14;;;;;;;10.85;4.60;;;7.90;99.90;;;;;;5030182;28;20065;-50
2023/01/08 10:08:43;;;;;;;11.32;3.25;;;7.90;99.90;;;;;;5028349;28;20395;-50
2023/01/08 10:11:11;;;;;;;8.88;2.53;;;8.00;99.90;;;;;;5029331;28;20098;-47
2023/01/08 10:13:40;;;;;;;9.50;2.72;;;8.50;99.90;;;;;;5011625;28;20083;-50
2023/01/08 10:16:15;;;;;;;7.03;2.30;;;7.80;99.90;;;;;;5012669;28;20037;-52
2023/01/08 10:18:41;;;;;;;;;;;7.90;99.90;;;;;;5009587;28;20042;-52
2023/01/08 10:21:12;;;;;;;7.70;2.25;;;8.30;99.90;;;;;;5025332;28;20340;-51
2023/01/08 10:23:51;;;;;;;10.10;2.38;;;8.20;99.90;;;;;;5034446;28;20036;-50
2023/01/08 10:26:37;;;;;;;10.10;2.53;;;8.30;99.90;;;;;;5028605;28;20037;-53
2023/01/08 10:29:20;;;;;;;10.55;2.70;;;7.90;99.90;;;;;;5030158;28;20037;-49
2023/01/08 10:31:50;;;;;;;7.72;2.38;;;8.20;99.90;;;;;;5029872;28;20398;-49
2023/01/08 10:34:32;;;;;;;8.65;2.30;;;8.60;99.90;;;;;;5029839;28;20466;-52
2023/01/08 10:36:58;;;;;;;11.95;2.28;;;8.40;99.90;;;;;;5010214;28;20049;-49
2023/01/08 10:39:29;;;;;;;9.38;2.25;;;8.10;99.90;;;;;;5026692;28;20074;-51
2023/01/08 10:41:57;;;;;;;10.60;2.80;;;;;;;;;;5007674;28;20090;-49
2023/01/08 10:44:23;;;;;;;10.52;2.30;;;8.20;99.90;;;;;;5038802;28;20045;-50
2023/01/08 10:46:56;;;;;;;9.10;2.45;;;8.00;99.90;;;;;;5028838;28;20049;-49
2023/01/08 10:49:32;;;;;;;11.07;3.10;;;7.80;99.90;;;;;;5021003;28;20036;-49
2023/01/08 10:51:59;;;;;;;8.05;2.00;;;8.50;99.90;;;;;;5012050;28;20037;-50
2023/01/08 10:54:39;;;;;;;10.23;2.40;;;8.80;99.90;;;;;;5022095;28;20049;-50
2023/01/08 10:57:39;;;;;;;9.80;2.67;;;8.40;99.90;;;;;;5025441;28;20520;-50
2023/01/08 11:00:06;;;;;;;10.25;2.30;;;;;;;;;;4979525;28;20586;-50
2023/01/08 11:02:36;;;;;;;9.57;2.38;;;8.50;99.90;;;;;;5032901;28;20119;-50
2023/01/08 11:05:04;;;;;;;11.50;2.53;;;;;;;;;;5017986;28;20175;-51
2023/01/08 11:07:35;;;;;;;10.13;2.30;;;8.20;99.90;;;;;;5031557;28;20041;-50
2023/01/08 11:10:03;;;;;;;9.05;2.55;;;8.10;99.90;;;;;;5005942;28;20068;-50
2023/01/08 11:12:37;;;;;;;10.32;2.70;;;8.70;99.90;;;;;;5038785;28;20482;-53
2023/01/08 11:15:42;;;;;;;10.48;2.72;;;8.90;99.90;;;;;;5010921;28;20029;-51
2023/01/08 11:18:24;;;;;;;5.72;1.70;;;8.20;99.90;;;;;;5009808;28;20049;-47
2023/01/08 11:21:07;;;;;;;9.27;2.13;;;8.30;99.90;;;;;;5030914;28;20499;-49
2023/01/08 11:23:33;;;;;;;10.07;2.58;;;;;;;;;;5044073;28;20079;-52
2023/01/08 11:26:07;;;;;;;10.82;1.88;;;8.90;99.90;;;;;;5026545;28;20041;-50
2023/01/08 11:28:51;;;;;;;11.75;2.40;;;8.60;99.90;;;;;;5017316;28;20053;-49
2023/01/08 11:31:24;;;;;;;11.27;3.42;;;8.70;99.90;;;;;;5026803;28;20041;-52
2023/01/08 11:34:00;;;;;;;10.25;2.45;;;8.30;99.90;;;;;;5013484;28;20123;-51
2023/01/08 11:36:37;;;;;;;12.95;4.00;;;9.00;99.90;;;;;;5017111;28;20484;-50
2023/01/08 11:39:02;;;;;;;8.32;1.98;;;8.70;99.90;;;;;;5025787;28;20095;-50
2023/01/08 11:41:58;;;;;;;11.77;2.92;;;8.90;99.90;;;;;;5034098;28;20037;-49
2023/01/08 11:44:40;;;;;;;12.65;2.80;;;8.60;99.90;;;;;;5031114;28;20104;-49
2023/01/08 11:47:28;;;;;;;9.38;2.47;;;10.40;99.90;;;;;;5028994;28;20050;-49
2023/01/08 11:50:13;;;;;;;12.77;2.65;;;10.60;99.90;;;;;;5031649;28;20121;-49
2023/01/08 11:53:04;;;;;;;9.85;2.67;;;11.50;99.90;;;;;;5030949;28;20068;-51
2023/01/08 11:55:48;;;;;;;8.15;3.13;;;12.30;99.90;;;;;;5032795;28;20045;-51
2023/01/08 11:58:32;;;;;;;11.48;2.50;;;12.10;99.90;;;;;;5031613;28;20411;-49
2023/01/08 12:01:06;;;;;;;9.73;2.55;;;11.90;99.90;;;;;;5033140;28;20037;-52
2023/01/08 12:03:44;;;;;;;14.43;2.65;;;12.60;99.90;;;;;;5033101;28;20059;-52
2023/01/08 12:06:23;;;;;;;8.38;2.20;;;12.80;99.90;;;;;;5019713;28;20042;-51
2023/01/08 12:08:58;;;;;;;9.80;2.65;;;12.40;99.90;;;;;;5018916;28;20037;-52
2023/01/08 12:11:30;;;;;;;13.00;3.15;;;11.50;99.90;;;;;;5032519;28;20071;-51
2023/01/08 12:14:01;;;;;;;10.25;2.80;;;12.30;99.90;;;;;;5032389;28;20037;-50
2023/01/08 12:16:38;;;;;;;11.93;2.80;;;12.40;99.90;;;;;;5033932;28;20503;-50
2023/01/08 12:19:32;;;;;;;8.93;2.40;;;12.40;99.90;;;;;;5014295;28;20113;-49
2023/01/08 12:22:16;;;;;;;9.93;2.50;;;13.00;99.90;;;;;;5031063;28;20041;-49
2023/01/08 12:25:08;;;;;;;7.57;2.38;;;12.40;99.90;;;;;;5036914;28;20044;-51
2023/01/08 12:28:02;;;;;;;9.50;2.50;;;13.80;99.90;;;;;;5013180;28;20125;-50
2023/01/08 12:30:56;;;;;;;10.30;2.55;;;13.00;99.90;;;;;;5032656;28;20033;-50
2023/01/08 12:33:35;;;;;;;11.77;3.67;;;13.30;99.90;;;;;;5030889;28;20384;-53
2023/01/08 12:36:32;;;;;;;9.63;2.80;;;14.20;99.90;;;;;;5031819;28;20075;-52
2023/01/08 12:39:03;;;;;;;13.50;2.65;;;14.20;99.90;;;;;;5023843;28;20047;-49
2023/01/08 12:41:32;;;;;;;9.43;3.10;;;13.70;99.90;;;;;;5031833;28;20079;-50
2023/01/08 12:44:10;;;;;;;9.57;2.92;;;12.80;99.90;;;;;;5036776;28;20499;-52
2023/01/08 12:46:46;;;;;;;7.35;2.53;;;;;;;;;;5030371;28;20052;-50
2023/01/08 12:49:20;;;;;;;8.85;2.60;;;11.40;99.90;;;;;;5027077;28;20043;-51
2023/01/08 12:52:05;;;;;;;11.55;3.55;;;11.10;99.90;;;;;;5032633;28;20037;-52
2023/01/08 12:54:30;;;;;;;;;;;12.20;99.90;;;;;;5028977;28;20033;-50
2023/01/08 12:57:11;;;;;;;9.75;2.70;;;11.70;99.90;;;;;;5030222;28;19967;-52
2023/01/08 12:59:55;;;;;;;9.48;2.92;;;11.20;99.90;;;;;;5032054;28;20045;-49
2023/01/08 13:02:46;;;;;;;12.52;3.50;;;10.80;99.90;;;;;;5024695;28;20091;-51
2023/01/08 13:05:33;;;;;;;7.88;3.03;;;10.20;99.90;;;;;;4993973;28;20119;-52
2023/01/08 13:08:25;;;;;;;16.83;4.15;;;9.70;99.90;;;;;;5025292;28;20412;-50
2023/01/08 13:10:53;;;;;;;7.72;3.28;;;9.90;99.90;;;;;;5036233;28;20037;-50
2023/01/08 13:13:30;;;;;;;9.10;3.13;;;9.00;99.90;;;;;;5039425;28;20033;-52
2023/01/08 13:16:20;;;;;;;11.60;2.95;;;8.80;99.90;;;;;;5006920;28;20565;-52